METAR Data
IDs: Format: Raw Decoded Include TAF

Data at: 0116 UTC 29 May 2022

ETHA 290020Z AUTO 18001KT 9999 // ////// 05/04 Q1014 ///